Time;durP1;ratioP1;P1;durP2;ratioP2;P2;SDS_P1;SDS_P2;PMS_P1;PMS_P2;Temp;Humidity;BMP_temperature;BMP_pressure;BME280_temperature;BME280_humidity;BME280_pressure;Samples;Min_cycle;Max_cycle;Signal;HPM_P1;HPM_P2
2022/03/25 00:01:00;;;;;;;66.43;42.00;;;;;;;9.64;64.38;102745.22;5033191;28;20036;-71
2022/03/25 00:03:26;;;;;;;62.50;40.85;;;;;;;9.55;64.59;102752.50;5035394;28;20043;-71
2022/03/25 00:05:51;;;;;;;64.78;41.92;;;;;;;9.56;65.19;102750.66;5034290;28;20448;-71
2022/03/25 00:08:17;;;;;;;62.47;40.63;;;;;;;9.55;65.69;102754.34;5035190;28;20382;-72
2022/03/25 00:10:43;;;;;;;68.68;41.45;;;;;;;9.53;65.99;102753.69;5050858;28;20070;-71
2022/03/25 00:13:09;;;;;;;59.33;40.33;;;;;;;9.53;65.19;102749.13;5035308;28;20065;-71
2022/03/25 00:15:35;;;;;;;60.60;40.88;;;;;;;9.40;64.73;102752.38;5035339;28;20030;-71
2022/03/25 00:18:00;;;;;;;71.45;42.65;;;;;;;9.43;65.20;102753.88;5034592;28;20412;-71
2022/03/25 00:20:25;;;;;;;60.45;40.88;;;;;;;9.43;65.33;102758.44;5034839;28;20037;-71
2022/03/25 00:22:51;;;;;;;65.25;40.83;;;;;;;9.33;65.51;102753.19;5000982;28;20037;-71
2022/03/25 00:25:16;;;;;;;63.85;41.45;;;;;;;9.33;65.75;102755.88;5034779;28;20037;-71
2022/03/25 00:27:42;;;;;;;70.82;41.28;;;;;;;9.31;65.37;102753.34;5035022;28;20116;-71
2022/03/25 00:30:08;;;;;;;62.65;40.78;;;;;;;9.27;65.32;102760.13;5035024;28;20063;-71
2022/03/25 00:32:35;;;;;;;62.42;41.15;;;;;;;9.16;65.07;102750.53;5035127;28;20087;-71
2022/03/25 00:35:00;;;;;;;67.20;40.95;;;;;;;9.17;65.53;102754.06;5034967;28;20040;-71
2022/03/25 00:37:26;;;;;;;62.63;40.03;;;;;;;9.14;65.77;102754.41;5034614;28;20022;-71
2022/03/25 00:39:51;;;;;;;68.25;41.72;;;;;;;9.07;65.72;102750.66;5034838;28;20034;-71
2022/03/25 00:42:16;;;;;;;65.32;40.35;;;;;;;9.04;66.88;102755.41;5034780;28;20033;-71
2022/03/25 00:44:42;;;;;;;64.63;41.20;;;;;;;9.01;66.62;102761.16;5034056;28;20383;-71
2022/03/25 00:47:07;;;;;;;67.15;42.28;;;;;;;8.98;66.42;102755.22;5034517;28;20445;-71
2022/03/25 00:49:33;;;;;;;69.65;41.28;;;;;;;8.91;66.81;102754.19;5034273;28;20099;-72
2022/03/25 00:51:58;;;;;;;65.35;41.00;;;;;;;8.86;66.71;102754.69;5033390;28;20037;-72
2022/03/25 00:54:24;;;;;;;74.47;41.22;;;;;;;8.83;66.04;102746.94;5034529;28;20037;-72
2022/03/25 00:56:49;;;;;;;66.50;40.80;;;;;;;8.84;66.55;102754.03;5034583;28;20029;-71
2022/03/25 00:59:15;;;;;;;72.60;42.28;;;;;;;8.80;66.90;102741.88;5033996;28;20040;-72
2022/03/25 01:01:40;;;;;;;66.63;40.05;;;;;;;8.78;67.32;102750.13;5032277;28;20429;-72
2022/03/25 01:04:07;;;;;;;65.60;41.40;;;;;;;8.77;67.19;102748.47;5034122;28;20040;-72
2022/03/25 01:06:32;;;;;;;67.35;40.38;;;;;;;8.73;66.28;102748.97;5034531;28;20046;-72
2022/03/25 01:08:58;;;;;;;63.17;40.58;;;;;;;8.72;66.20;102744.56;5033163;28;20392;-72
2022/03/25 01:11:23;;;;;;;77.00;40.83;;;;;;;8.75;66.41;102752.31;5033963;28;20034;-72
2022/03/25 01:13:48;;;;;;;68.32;40.05;;;;;;;8.72;66.77;102750.78;5034239;28;20045;-72
2022/03/25 01:16:14;;;;;;;65.70;40.72;;;;;;;8.66;66.96;102749.59;5033490;28;20093;-72
2022/03/25 01:18:39;;;;;;;63.75;39.72;;;;;;;8.61;67.12;102748.44;5033870;28;20467;-72
2022/03/25 01:21:04;;;;;;;69.30;40.83;;;;;;;8.54;66.50;102753.63;5034294;28;20056;-71
2022/03/25 01:23:29;;;;;;;64.40;40.50;;;;;;;8.50;66.54;102746.88;5034020;28;20037;-71
2022/03/25 01:25:55;;;;;;;64.82;40.05;;;;;;;8.47;67.54;102752.59;5033969;28;20029;-71
2022/03/25 01:28:20;;;;;;;72.13;39.67;;;;;;;8.44;67.28;102752.91;5015460;28;20516;-72
2022/03/25 01:30:46;;;;;;;70.05;40.20;;;;;;;8.40;66.40;102754.25;5034138;28;20064;-71
2022/03/25 01:33:13;;;;;;;62.05;39.88;;;;;;;8.34;67.43;102742.25;5033276;28;20037;-71
2022/03/25 01:35:38;;;;;;;67.65;39.60;;;;;;;8.43;67.23;102752.03;5032926;28;20033;-72
2022/03/25 01:38:04;;;;;;;63.35;40.33;;;;;;;8.32;67.05;102745.09;5033808;28;20476;-71
2022/03/25 01:40:30;;;;;;;67.90;38.78;;;;;;;8.34;67.02;102742.25;5033656;28;20025;-72
2022/03/25 01:42:55;;;;;;;73.85;38.95;;;;;;;8.35;66.58;102738.53;5033453;28;20427;-71
2022/03/25 01:45:34;;;;;;;59.75;38.63;;;;;;;8.30;67.15;102741.72;5033292;28;20392;-71
2022/03/25 01:48:07;;;;;;;60.13;38.03;;;;;;;8.26;66.93;102739.53;5033562;28;20034;-72
2022/03/25 01:50:32;;;;;;;59.38;37.65;;;;;;;8.23;67.30;102732.59;5033332;28;20041;-71
2022/03/25 01:52:58;;;;;;;60.53;37.95;;;;;;;8.18;66.81;102732.22;5033403;28;20126;-72
2022/03/25 01:55:26;;;;;;;56.90;37.60;;;;;;;8.09;67.27;102739.47;5032957;28;20072;-72
2022/03/25 01:57:55;;;;;;;56.75;37.33;;;;;;;8.07;67.14;102740.63;5032941;28;20033;-72
2022/03/25 02:00:21;;;;;;;59.47;36.70;;;;;;;8.09;66.40;102741.28;5033087;28;20029;-72
2022/03/25 02:02:46;;;;;;;65.68;37.22;;;;;;;8.06;66.62;102742.47;5031191;28;20029;-72
2022/03/25 02:05:13;;;;;;;62.65;38.28;;;;;;;8.05;66.76;102748.03;5033048;28;20477;-72
2022/03/25 02:07:40;;;;;;;59.53;36.00;;;;;;;8.07;66.40;102737.94;5032219;28;20434;-72
2022/03/25 02:10:06;;;;;;;63.53;37.63;;;;;;;8.02;66.66;102743.81;5033120;28;20427;-72
2022/03/25 02:12:32;;;;;;;53.97;35.22;;;;;;;8.04;66.94;102740.94;5032987;28;20037;-72
2022/03/25 02:14:58;;;;;;;55.50;35.28;;;;;;;8.03;66.26;102733.84;5033236;28;20029;-72
2022/03/25 02:17:23;;;;;;;53.78;34.72;;;;;;;7.95;66.53;102745.44;5032803;28;20490;-72
2022/03/25 02:19:49;;;;;;;61.33;34.78;;;;;;;7.93;66.19;102747.47;5032962;28;20029;-72
2022/03/25 02:22:15;;;;;;;57.47;33.05;;;;;;;7.91;65.62;102744.94;5032910;28;20045;-71
2022/03/25 02:24:40;;;;;;;50.40;33.15;;;;;;;7.94;65.13;102735.66;5033056;28;20033;-71
2022/03/25 02:27:06;;;;;;;52.10;32.70;;;;;;;7.91;65.26;102742.25;5032584;28;20457;-72
2022/03/25 02:29:32;;;;;;;49.58;33.05;;;;;;;7.94;64.80;102736.53;5032775;28;20392;-72
2022/03/25 02:31:57;;;;;;;53.10;31.52;;;;;;;7.96;64.17;102729.13;5032828;28;20061;-72
2022/03/25 02:34:24;;;;;;;50.50;30.73;;;;;;;7.93;63.78;102734.81;5031733;28;20108;-72
2022/03/25 02:36:49;;;;;;;48.58;31.42;;;;;;;7.98;63.73;102732.47;5032916;28;20079;-72
2022/03/25 02:39:16;;;;;;;52.17;31.48;;;;;;;7.92;64.23;102737.69;5032512;28;20445;-72
2022/03/25 02:41:41;;;;;;;49.60;31.17;;;;;;;7.90;62.77;102729.75;5032733;28;20056;-72
2022/03/25 02:44:07;;;;;;;53.55;31.92;;;;;;;7.92;63.38;102735.81;5032783;28;20488;-71
2022/03/25 02:46:33;;;;;;;45.55;29.75;;;;;;;7.89;62.64;102738.84;5032144;28;20469;-72
2022/03/25 02:48:58;;;;;;;44.70;29.85;;;;;;;7.85;62.94;102733.94;5031807;28;20064;-72
2022/03/25 02:51:24;;;;;;;50.25;30.73;;;;;;;7.84;62.45;102735.78;5032330;28;20034;-72
2022/03/25 02:53:49;;;;;;;46.42;30.20;;;;;;;7.85;62.73;102734.81;5032692;28;20353;-72
2022/03/25 02:56:15;;;;;;;52.90;30.58;;;;;;;7.85;62.53;102736.63;5032252;28;20403;-72
2022/03/25 02:58:40;;;;;;;51.15;29.52;;;;;;;7.80;62.53;102729.03;5032348;28;20164;-71
2022/03/25 03:01:08;;;;;;;48.72;30.52;;;;;;;7.77;62.58;102732.03;5030180;28;20396;-72
2022/03/25 03:03:34;;;;;;;51.50;30.98;;;;;;;7.75;63.27;102732.22;5032106;28;20037;-72
2022/03/25 03:05:59;;;;;;;46.42;29.75;;;;;;;7.66;62.58;102737.72;5032202;28;20396;-72
2022/03/25 03:08:25;;;;;;;49.33;30.45;;;;;;;7.66;62.15;102732.34;5032176;28;20033;-72
2022/03/25 03:10:51;;;;;;;50.30;31.73;;;;;;;7.57;62.53;102734.97;5032329;28;20376;-71
2022/03/25 03:13:17;;;;;;;51.75;31.25;;;;;;;7.58;62.83;102735.81;5032107;28;20037;-72
2022/03/25 03:15:42;;;;;;;50.60;31.25;;;;;;;7.48;62.54;102741.31;5032413;28;20029;-72
2022/03/25 03:18:08;;;;;;;46.40;29.98;;;;;;;7.48;62.75;102735.91;5031686;28;20488;-72
2022/03/25 03:20:33;;;;;;;54.47;32.63;;;;;;;7.51;62.50;102738.28;5032006;28;20481;-72
2022/03/25 03:22:58;;;;;;;50.75;31.15;;;;;;;7.48;62.47;102740.47;5032284;28;20033;-71
2022/03/25 03:25:26;;;;;;;45.88;30.05;;;;;;;7.42;63.51;102742.78;5039389;28;20025;-72
2022/03/25 03:27:52;;;;;;;48.35;30.48;;;;;;;7.38;63.26;102740.53;5037122;28;20036;-72
2022/03/25 03:30:17;;;;;;;49.05;31.50;;;;;;;7.35;63.92;102741.72;5031675;28;20490;-72
2022/03/25 03:32:43;;;;;;;49.10;31.33;;;;;;;7.33;62.48;102740.19;5031788;28;20053;-72
2022/03/25 03:35:08;;;;;;;49.22;33.55;;;;;;;7.26;63.21;102742.66;5032275;28;20116;-71
2022/03/25 03:37:44;;;;;;;56.97;31.88;;;;;;;7.17;62.73;102739.06;5031942;28;20037;-77
2022/03/25 03:40:10;;;;;;;49.45;30.40;;;;;;;7.13;62.86;102740.38;5032153;28;20033;-71
2022/03/25 03:42:37;;;;;;;56.08;31.98;;;;;;;7.15;64.06;102724.91;5031805;28;20179;-71
2022/03/25 03:45:03;;;;;;;54.13;30.63;;;;;;;7.06;63.41;102736.59;5032073;28;20164;-71
2022/03/25 03:47:28;;;;;;;49.38;31.42;;;;;;;7.06;63.36;102739.28;5031491;28;20037;-71
2022/03/25 03:49:53;;;;;;;48.30;31.40;;;;;;;7.00;63.71;102735.38;5014393;28;20057;-71
2022/03/25 03:52:19;;;;;;;47.78;30.95;;;;;;;6.94;63.26;102740.53;5031170;28;20029;-70
2022/03/25 03:54:45;;;;;;;54.17;31.90;;;;;;;6.90;64.23;102740.84;5014187;28;20044;-71
2022/03/25 03:57:10;;;;;;;47.53;30.73;;;;;;;6.82;64.94;102745.28;5031773;28;20040;-70
2022/03/25 03:59:35;;;;;;;52.13;31.08;;;;;;;6.79;64.47;102751.00;5031769;28;20108;-71
2022/03/25 04:02:01;;;;;;;57.65;32.05;;;;;;;6.80;63.65;102745.44;5029153;28;20113;-71
2022/03/25 04:04:26;;;;;;;54.05;31.73;;;;;;;6.80;63.66;102747.31;5031339;28;20033;-70
2022/03/25 04:06:51;;;;;;;52.80;31.92;;;;;;;6.78;64.21;102741.22;5031909;28;20092;-71
2022/03/25 04:09:16;;;;;;;50.28;32.25;;;;;;;6.72;64.30;102746.22;5032143;28;20376;-70
2022/03/25 04:11:42;;;;;;;47.30;31.58;;;;;;;6.76;64.02;102745.91;5031091;28;20068;-71
2022/03/25 04:14:07;;;;;;;47.85;30.63;;;;;;;6.62;63.56;102742.75;5031854;28;20447;-71
2022/03/25 04:16:32;;;;;;;52.05;31.95;;;;;;;6.57;64.05;102737.81;5031491;28;20498;-71
2022/03/25 04:18:58;;;;;;;50.45;31.63;;;;;;;6.56;63.88;102741.50;5031574;28;20034;-70
2022/03/25 04:21:23;;;;;;;46.85;30.55;;;;;;;6.54;64.25;102748.88;5034681;28;20492;-71
2022/03/25 04:23:48;;;;;;;51.55;32.58;;;;;;;6.51;64.19;102743.81;5035238;28;20072;-71
2022/03/25 04:26:14;;;;;;;52.47;31.65;;;;;;;6.47;64.85;102747.78;5035501;28;20031;-71
2022/03/25 04:28:39;;;;;;;51.45;32.88;;;;;;;6.41;64.98;102753.78;5035000;28;20045;-71
2022/03/25 04:31:05;;;;;;;55.53;32.05;;;;;;;6.42;64.95;102755.47;5035169;28;20120;-71
2022/03/25 04:33:32;;;;;;;50.28;33.00;;;;;;;6.36;64.31;102761.47;5034570;28;20420;-70
2022/03/25 04:35:57;;;;;;;52.78;31.55;;;;;;;6.35;64.84;102768.66;5035213;28;20029;-71
2022/03/25 04:38:23;;;;;;;53.25;33.38;;;;;;;6.37;64.62;102758.63;5034300;28;20029;-71
2022/03/25 04:40:48;;;;;;;48.65;31.98;;;;;;;6.34;64.46;102758.06;5035221;28;20044;-71
2022/03/25 04:43:14;;;;;;;51.17;31.88;;;;;;;6.36;63.64;102756.91;5035260;28;20032;-71
2022/03/25 04:45:39;;;;;;;51.65;33.03;;;;;;;6.28;65.14;102759.53;5034727;28;20830;-71
2022/03/25 04:48:05;;;;;;;53.47;32.65;;;;;;;6.26;64.15;102755.28;5034638;28;20041;-71
2022/03/25 04:50:30;;;;;;;53.30;33.67;;;;;;;6.25;65.14;102756.28;5016664;28;20021;-71
2022/03/25 04:52:56;;;;;;;50.55;32.55;;;;;;;6.21;64.72;102753.88;5034646;28;20034;-71
2022/03/25 04:55:21;;;;;;;49.35;32.97;;;;;;;6.22;65.13;102754.75;5034696;28;20083;-71
2022/03/25 04:57:47;;;;;;;55.20;33.85;;;;;;;6.21;64.61;102759.25;5034425;28;20104;-71
2022/03/25 05:00:13;;;;;;;52.28;32.78;;;;;;;6.23;64.93;102763.66;5034763;28;20086;-71
2022/03/25 05:02:39;;;;;;;51.80;33.25;;;;;;;6.17;64.87;102763.22;5031884;28;20034;-71
2022/03/25 05:05:05;;;;;;;55.40;33.47;;;;;;;6.11;65.04;102761.13;5034032;28;20032;-71
2022/03/25 05:07:30;;;;;;;53.80;33.28;;;;;;;6.11;64.78;102774.59;5034389;28;20430;-71
2022/03/25 05:10:00;;;;;;;49.97;32.63;;;;;;;6.03;64.92;102767.25;5034393;28;20033;-71
2022/03/25 05:12:25;;;;;;;60.60;34.65;;;;;;;6.05;64.44;102772.47;5034256;28;20112;-71
2022/03/25 05:14:51;;;;;;;58.17;34.20;;;;;;;6.03;64.93;102766.41;5034077;28;20030;-71
2022/03/25 05:17:17;;;;;;;56.53;33.47;;;;;;;6.01;65.34;102768.44;5034306;28;20036;-71
2022/03/25 05:19:42;;;;;;;56.60;34.83;;;;;;;6.01;65.21;102771.94;5032553;28;20029;-71
2022/03/25 05:22:08;;;;;;;56.03;33.00;;;;;;;5.96;64.69;102776.91;5034267;28;20546;-71
2022/03/25 05:24:33;;;;;;;62.97;33.25;;;;;;;5.90;65.12;102771.25;5033960;28;20030;-71
2022/03/25 05:26:59;;;;;;;53.33;32.47;;;;;;;5.81;65.11;102772.97;5034204;28;20469;-71
2022/03/25 05:29:25;;;;;;;55.17;32.33;;;;;;;5.80;65.42;102768.59;5033782;28;20033;-70
2022/03/25 05:31:51;;;;;;;54.55;34.42;;;;;;;5.79;65.79;102766.91;5033859;28;20065;-70
2022/03/25 05:34:16;;;;;;;64.72;33.25;;;;;;;5.76;66.12;102770.72;5034029;28;20122;-70
2022/03/25 05:36:41;;;;;;;53.03;33.35;;;;;;;5.79;66.00;102772.28;5032800;28;20041;-70
2022/03/25 05:39:07;;;;;;;62.63;33.90;;;;;;;5.77;65.69;102775.09;5033567;28;20031;-70
2022/03/25 05:41:33;;;;;;;62.28;35.55;;;;;;;5.73;66.13;102765.63;5034094;28;20044;-70
2022/03/25 05:43:59;;;;;;;66.60;35.00;;;;;;;5.81;66.07;102781.03;5049063;28;20484;-70
2022/03/25 05:46:24;;;;;;;66.43;34.90;;;;;;;5.77;66.08;102780.47;5033335;28;20033;-70
2022/03/25 05:48:49;;;;;;;63.33;34.95;;;;;;;5.74;66.28;102777.25;5048915;28;20519;-70
2022/03/25 05:51:15;;;;;;;73.55;34.60;;;;;;;5.71;66.22;102778.38;5033347;28;20025;-70
2022/03/25 05:53:41;;;;;;;75.75;35.15;;;;;;;5.71;66.32;102783.75;5033324;28;20037;-70
2022/03/25 05:56:07;;;;;;;80.57;35.10;;;;;;;5.75;66.59;102785.16;5032347;28;20033;-70
2022/03/25 05:58:36;;;;;;;68.55;34.28;;;;;;;5.69;66.00;102785.72;5032777;28;20040;-72
2022/03/25 06:01:03;;;;;;;67.35;33.97;;;;;;;5.74;66.48;102788.84;5031422;28;20037;-71
2022/03/25 06:03:30;;;;;;;69.72;34.60;;;;;;;5.74;65.97;102794.19;5033306;28;20025;-71
2022/03/25 06:05:55;;;;;;;60.60;34.55;;;;;;;5.74;65.99;102783.47;5033059;28;20108;-70
2022/03/25 06:08:23;;;;;;;67.05;35.58;;;;;;;5.76;65.69;102788.69;5033276;28;20066;-71
2022/03/25 06:10:49;;;;;;;56.80;34.75;;;;;;;5.75;66.43;102790.53;5033199;28;20033;-71
2022/03/25 06:13:14;;;;;;;58.45;34.70;;;;;;;5.75;66.34;102793.22;5033125;28;20025;-70
2022/03/25 06:15:39;;;;;;;58.45;35.03;;;;;;;5.78;66.22;102800.13;5032416;28;20044;-71
2022/03/25 06:18:04;;;;;;;60.95;37.30;;;;;;;5.79;66.60;102797.28;5032929;28;20040;-70
2022/03/25 06:20:30;;;;;;;62.35;35.95;;;;;;;5.80;66.34;102808.91;5032765;28;20061;-70
2022/03/25 06:22:56;;;;;;;64.95;37.08;;;;;;;5.80;66.40;102801.69;5015229;28;20033;-71
2022/03/25 06:25:21;;;;;;;57.97;35.22;;;;;;;5.84;66.29;102802.22;5033099;28;20029;-70
2022/03/25 06:27:51;;;;;;;61.00;35.35;;;;;;;5.87;66.33;102799.25;5032661;28;20070;-71
2022/03/25 06:30:17;;;;;;;62.65;36.85;;;;;;;5.84;66.58;102804.91;5033062;28;20029;-71
2022/03/25 06:32:43;;;;;;;63.72;38.08;;;;;;;5.83;66.21;102805.94;5032486;28;20029;-71
2022/03/25 06:35:09;;;;;;;54.35;35.25;;;;;;;5.94;65.89;102812.97;5032411;28;20048;-70
2022/03/25 06:37:35;;;;;;;62.25;37.17;;;;;;;5.86;66.51;102817.22;5014961;28;20037;-70
2022/03/25 06:40:00;;;;;;;64.43;38.25;;;;;;;5.88;66.17;102816.22;5032823;28;20388;-71
2022/03/25 06:42:26;;;;;;;62.38;39.35;;;;;;;5.92;65.94;102810.41;5032174;28;20041;-70
2022/03/25 06:44:51;;;;;;;65.32;40.78;;;;;;;5.93;66.47;102824.69;5032537;28;20095;-70
2022/03/25 06:47:16;;;;;;;61.88;39.92;;;;;;;6.01;66.32;102822.16;5032368;28;20469;-70
2022/03/25 06:49:42;;;;;;;68.78;40.80;;;;;;;6.09;66.28;102816.91;5032342;28;20087;-70
2022/03/25 06:52:08;;;;;;;67.47;42.25;;;;;;;6.11;66.29;102811.38;5014674;28;20033;-70
2022/03/25 06:54:34;;;;;;;68.82;41.17;;;;;;;6.16;66.16;102815.31;5032388;28;20373;-70
2022/03/25 06:57:01;;;;;;;65.97;40.40;;;;;;;6.23;66.76;102812.88;5032024;28;20546;-70
2022/03/25 06:59:26;;;;;;;67.07;41.85;;;;;;;6.28;66.72;102820.50;5032533;28;20033;-70
2022/03/25 07:01:52;;;;;;;65.07;41.83;;;;;;;6.35;66.10;102818.91;5030085;28;20619;-71
2022/03/25 07:04:18;;;;;;;69.78;44.38;;;;;;;6.37;67.17;102825.84;5031923;28;20464;-71
2022/03/25 07:06:48;;;;;;;66.25;43.55;;;;;;;6.47;66.48;102831.16;5032091;28;20033;-70
2022/03/25 07:09:14;;;;;;;69.22;43.28;;;;;;;6.52;67.02;102825.34;5031915;28;20461;-70
2022/03/25 07:11:40;;;;;;;73.97;43.30;;;;;;;6.54;66.70;102829.59;5032164;28;20029;-70
2022/03/25 07:14:06;;;;;;;71.85;44.67;;;;;;;6.52;66.50;102826.22;5032159;28;20033;-71
2022/03/25 07:16:31;;;;;;;69.68;45.08;;;;;;;6.58;66.54;102840.88;5032139;28;20026;-70
2022/03/25 07:18:56;;;;;;;71.70;45.30;;;;;;;6.66;67.13;102837.47;5032349;28;20108;-70
2022/03/25 07:21:21;;;;;;;75.57;47.88;;;;;;;6.72;67.24;102836.88;5031856;28;20040;-70
2022/03/25 07:23:47;;;;;;;69.05;45.97;;;;;;;6.76;67.00;102832.84;5014386;28;20042;-70
2022/03/25 07:26:12;;;;;;;70.93;46.47;;;;;;;6.77;67.26;102834.56;5032197;28;20046;-70
2022/03/25 07:28:37;;;;;;;68.40;46.00;;;;;;;6.86;67.07;102844.41;5031852;28;20032;-71
2022/03/25 07:31:03;;;;;;;75.72;48.15;;;;;;;6.95;66.52;102842.66;5032210;28;20080;-71
2022/03/25 07:33:28;;;;;;;76.22;47.50;;;;;;;7.04;66.18;102846.28;5047572;28;20037;-71
2022/03/25 07:35:55;;;;;;;74.82;47.63;;;;;;;7.07;66.37;102849.50;5031484;28;20036;-72
2022/03/25 07:38:20;;;;;;;74.93;47.00;;;;;;;7.14;66.77;102847.06;5031489;28;20109;-70
2022/03/25 07:40:45;;;;;;;72.90;47.22;;;;;;;7.20;66.31;102856.38;5031876;28;20120;-70
2022/03/25 07:43:10;;;;;;;73.55;46.35;;;;;;;7.22;66.46;102859.78;5032206;28;20457;-70
2022/03/25 07:45:36;;;;;;;79.47;47.10;;;;;;;7.24;66.85;102858.59;5031686;28;20030;-70
2022/03/25 07:48:01;;;;;;;73.63;47.47;;;;;;;7.25;66.10;102864.84;5030632;28;20030;-70
2022/03/25 07:50:27;;;;;;;73.00;47.08;;;;;;;7.25;67.02;102871.06;5031493;28;20045;-70
2022/03/25 07:52:53;;;;;;;75.78;47.20;;;;;;;7.34;66.67;102865.78;5031328;28;20453;-70
2022/03/25 07:55:20;;;;;;;72.82;46.53;;;;;;;7.39;66.12;102868.84;5035207;28;20083;-70
2022/03/25 07:57:46;;;;;;;72.00;47.20;;;;;;;7.45;66.59;102870.91;5035584;28;20029;-70
2022/03/25 08:00:13;;;;;;;74.22;48.17;;;;;;;7.54;65.82;102878.06;5044958;28;20036;-70
2022/03/25 08:02:50;;;;;;;79.30;48.08;;;;;;;7.60;65.52;102879.31;5033315;28;20037;-70
2022/03/25 08:05:16;;;;;;;79.43;48.67;;;;;;;7.71;65.40;102883.59;5035570;28;20095;-71
2022/03/25 08:07:42;;;;;;;75.15;48.42;;;;;;;7.81;65.05;102885.19;5034748;28;20037;-70
2022/03/25 08:10:08;;;;;;;80.88;48.15;;;;;;;7.84;64.53;102883.22;5035581;28;20032;-70
2022/03/25 08:12:35;;;;;;;70.13;47.70;;;;;;;7.87;64.35;102886.44;5035327;28;20021;-70
2022/03/25 08:15:00;;;;;;;76.80;48.88;;;;;;;7.95;63.85;102889.16;5035444;28;20037;-70
2022/03/25 08:17:25;;;;;;;74.68;47.58;;;;;;;8.08;64.13;102888.78;5017878;28;20041;-70
2022/03/25 08:19:51;;;;;;;76.40;47.72;;;;;;;8.17;63.07;102892.38;5034690;28;20029;-70
2022/03/25 08:22:17;;;;;;;74.10;45.78;;;;;;;8.24;63.17;102888.00;5035202;28;20029;-71
2022/03/25 08:30:10;;;;;;;67.32;43.75;;;;;;;8.46;61.15;102896.63;5035252;28;20167;-70
2022/03/25 08:32:35;;;;;;;64.50;41.88;;;;;;;8.55;60.18;102905.59;5033764;28;20128;-70
2022/03/25 08:35:03;;;;;;;67.22;42.22;;;;;;;8.61;61.60;102899.56;5034743;28;20026;-70
2022/03/25 08:37:28;;;;;;;65.03;40.80;;;;;;;8.65;59.94;102900.91;5034916;28;20040;-70
2022/03/25 08:39:53;;;;;;;66.57;42.75;;;;;;;8.74;60.88;102901.78;5034698;28;20037;-70
2022/03/25 08:42:19;;;;;;;80.70;43.83;;;;;;;8.78;60.51;102905.88;5035089;28;20048;-70
2022/03/25 08:44:44;;;;;;;66.55;43.40;;;;;;;8.81;60.39;102895.56;5000649;28;20045;-70
2022/03/25 08:47:10;;;;;;;68.38;42.35;;;;;;;8.95;59.93;102907.63;5035292;28;20079;-70
2022/03/25 08:49:35;;;;;;;68.70;42.65;;;;;;;9.04;60.05;102905.78;5034559;28;20057;-70
2022/03/25 08:52:01;;;;;;;63.42;40.75;;;;;;;9.13;59.69;102898.53;5034541;28;20415;-70
2022/03/25 08:54:26;;;;;;;65.20;40.78;;;;;;;9.23;59.55;102904.66;5016934;28;20456;-71
2022/03/25 08:56:53;;;;;;;65.43;41.15;;;;;;;9.30;57.55;102904.81;5034636;28;20030;-70
2022/03/25 08:59:18;;;;;;;65.28;41.20;;;;;;;9.36;58.36;102907.72;5034126;28;20053;-70
2022/03/25 09:01:44;;;;;;;71.53;40.40;;;;;;;9.47;57.85;102911.13;5032036;28;20030;-70
2022/03/25 09:04:09;;;;;;;65.63;39.47;;;;;;;9.51;56.99;102912.47;5034667;28;20025;-70
2022/03/25 09:06:34;;;;;;;64.50;41.08;;;;;;;9.61;58.20;102918.56;5033838;28;20117;-70
2022/03/25 09:09:00;;;;;;;63.72;41.15;;;;;;;9.70;57.64;102920.25;5034154;28;20083;-70
2022/03/25 09:11:25;;;;;;;63.45;40.03;;;;;;;9.76;55.89;102922.28;5034520;28;20032;-70
2022/03/25 09:13:50;;;;;;;58.13;37.55;;;;;;;9.79;55.59;102920.28;5034026;28;20075;-70
2022/03/25 09:16:16;;;;;;;63.83;41.13;;;;;;;9.96;55.80;102926.50;5034204;28;20045;-70
2022/03/25 09:18:42;;;;;;;67.32;39.78;;;;;;;10.02;56.41;102920.41;5033928;28;20029;-70
2022/03/25 09:21:07;;;;;;;61.05;40.38;;;;;;;10.13;55.59;102921.91;5033606;28;20021;-70
2022/03/25 09:23:33;;;;;;;67.18;41.13;;;;;;;10.21;55.22;102925.47;5034096;28;20029;-69
2022/03/25 09:25:58;;;;;;;65.47;40.97;;;;;;;10.28;56.21;102931.03;5034023;28;20037;-70
2022/03/25 09:28:24;;;;;;;65.40;41.22;;;;;;;10.42;55.22;102929.53;5034148;28;20473;-70
2022/03/25 09:30:49;;;;;;;63.15;40.05;;;;;;;10.45;54.10;102924.59;5033633;28;20373;-70
2022/03/25 09:33:14;;;;;;;60.85;35.97;;;;;;;10.59;52.57;102933.88;5033923;28;20063;-70
2022/03/25 09:35:42;;;;;;;58.40;37.15;;;;;;;10.69;53.02;102930.97;5033548;28;20462;-70
2022/03/25 09:38:08;;;;;;;55.13;34.83;;;;;;;10.84;51.00;102930.22;5033578;28;20087;-70
2022/03/25 09:40:33;;;;;;;57.95;34.45;;;;;;;10.86;51.44;102914.66;4999857;28;20120;-70
2022/03/25 09:42:59;;;;;;;62.05;36.03;;;;;;;10.94;50.53;102925.44;5033584;28;20048;-70
2022/03/25 09:45:26;;;;;;;61.78;35.92;;;;;;;10.99;51.22;102923.91;5033867;28;20393;-70
2022/03/25 09:47:54;;;;;;;61.50;35.20;;;;;;;11.07;51.61;102923.00;5033403;28;20029;-70
2022/03/25 09:50:21;;;;;;;54.03;34.25;;;;;;;11.13;50.79;102926.88;5033836;28;20045;-70
2022/03/25 09:52:47;;;;;;;53.75;34.08;;;;;;;11.15;50.53;102920.25;5033187;28;20026;-71
2022/03/25 09:55:15;;;;;;;49.95;30.92;;;;;;;11.21;49.52;102921.41;5033780;28;20032;-71
2022/03/25 09:57:41;;;;;;;54.45;31.95;;;;;;;11.29;49.27;102907.81;5032779;28;20025;-71
2022/03/25 10:00:11;;;;;;;50.53;29.52;;;;;;;11.36;49.03;102910.63;5033614;28;20163;-71
2022/03/25 10:02:36;;;;;;;51.47;30.77;;;;;;;11.45;50.01;102906.84;5030795;28;20030;-70
2022/03/25 10:05:12;;;;;;;49.83;29.73;;;;;;;11.55;49.61;102914.75;5033286;28;20029;-71
2022/03/25 10:07:44;;;;;;;49.05;29.95;;;;;;;11.62;48.68;102917.56;5032738;28;20041;-70
2022/03/25 10:10:17;;;;;;;46.05;26.40;;;;;;;11.74;47.24;102907.16;5032781;28;20037;-71
2022/03/25 10:12:45;;;;;;;51.15;28.80;;;;;;;11.83;47.13;102915.03;5033118;28;20103;-71
2022/03/25 10:15:27;;;;;;;45.78;28.38;;;;;;;11.89;47.31;102918.88;5033273;28;20460;-72
2022/03/25 10:18:03;;;;;;;41.83;25.65;;;;;;;11.95;47.11;102910.03;5031310;28;20040;-73
2022/03/25 10:20:34;;;;;;;41.35;25.15;;;;;;;12.02;45.79;102912.88;5042788;28;20037;-72
2022/03/25 10:22:59;;;;;;;42.23;25.83;;;;;;;12.07;45.79;102905.00;5043523;28;20500;-72
2022/03/25 10:25:39;;;;;;;39.33;25.13;;;;;;;12.14;46.14;102910.53;5033226;28;20056;-72
2022/03/25 10:28:17;;;;;;;44.58;26.95;;;;;;;12.21;45.12;102911.47;5032919;28;20029;-72
2022/03/25 10:30:43;;;;;;;47.80;26.40;;;;;;;12.27;44.49;102913.44;5032533;28;20021;-73
2022/03/25 10:33:19;;;;;;;42.67;26.25;;;;;;;12.32;44.97;102904.75;5032929;28;20034;-73
2022/03/25 10:35:55;;;;;;;46.67;27.10;;;;;;;12.33;45.17;102904.56;5033139;28;20029;-71
2022/03/25 10:38:21;;;;;;;39.15;24.35;;;;;;;12.40;44.02;102904.69;5031693;28;20025;-70
2022/03/25 10:40:54;;;;;;;45.47;26.40;;;;;;;12.50;44.89;102907.97;5032249;28;20033;-70
2022/03/25 10:43:20;;;;;;;38.53;24.05;;;;;;;12.55;44.71;102902.78;5032971;28;20497;-70
2022/03/25 10:45:45;;;;;;;54.03;24.92;;;;;;;12.64;45.17;102887.25;5032284;28;20037;-70
2022/03/25 10:48:18;;;;;;;41.63;26.17;;;;;;;12.69;44.10;102897.53;5031319;28;20037;-70
2022/03/25 10:51:08;;;;;;;41.55;25.52;;;;;;;12.73;44.87;102893.44;5032464;28;20030;-70
2022/03/25 10:53:36;;;;;;;48.63;25.95;;;;;;;12.82;43.76;102892.28;5032379;28;20496;-70
2022/03/25 10:56:07;;;;;;;43.55;25.33;;;;;;;12.94;44.73;102895.38;5032196;28;20496;-70
2022/03/25 10:58:37;;;;;;;42.40;23.20;;;;;;;13.01;42.83;102895.44;5025002;28;20037;-70
2022/03/25 11:01:06;;;;;;;37.58;22.98;;;;;;;13.08;42.68;102894.47;5029613;28;20968;-71
2022/03/25 11:03:32;;;;;;;37.00;24.67;;;;;;;13.13;43.09;102893.88;5032026;28;20039;-71
2022/03/25 11:05:57;;;;;;;44.95;24.73;;;;;;;13.24;43.99;102878.94;5019790;28;20115;-72
2022/03/25 11:08:23;;;;;;;39.40;25.05;;;;;;;13.30;42.47;102889.91;5032415;28;20083;-74
2022/03/25 11:10:48;;;;;;;39.25;24.17;;;;;;;13.37;42.26;102890.00;5032376;28;20038;-71
2022/03/25 11:13:14;;;;;;;51.65;26.60;;;;;;;13.40;42.65;102886.06;5031650;28;20036;-70
2022/03/25 11:15:40;;;;;;;39.35;26.40;;;;;;;13.47;42.03;102884.25;5032278;28;20026;-71
2022/03/25 11:18:06;;;;;;;41.60;26.80;;;;;;;13.52;43.17;102889.09;5031812;28;20065;-71